Time,TemperatureF,DewpointF,PressureIn,WindDirection,WindDirectionDegrees,WindSpeedMPH,WindSpeedGustMPH,Humidity,HourlyPrecipIn,Conditions,Clouds,dailyrainin,SoftwareType,DateUTC
2013-01-23 00:01:00,47.5,41.0,29.57,NNE,15,21.0,31.0,79,0.00,,,0.00,weatherlink.com 1.10,2013-01-22 23:01:00,
2013-01-23 00:17:00,46.1,42.0,29.57,East,89,23.0,43.0,84,0.00,,,0.00,weatherlink.com 1.10,2013-01-22 23:17:00,
2013-01-23 00:32:00,45.1,42.0,29.56,NNE,32,27.0,47.0,89,0.00,,,0.00,weatherlink.com 1.10,2013-01-22 23:32:00,
2013-01-23 00:47:00,44.7,42.0,29.58,ENE,70,26.0,37.0,89,0.00,,,0.00,weatherlink.com 1.10,2013-01-22 23:47:00,
2013-01-23 01:02:00,44.1,40.0,29.58,East,81,35.0,52.0,86,0.00,,,0.00,weatherlink.com 1.10,2013-01-23 00:02:00,
2013-01-23 01:17:00,43.7,40.0,29.60,East,89,34.0,41.0,87,0.00,,,0.00,weatherlink.com 1.10,2013-01-23 00:17:00,
2013-01-23 01:32:00,43.8,40.0,29.60,East,99,21.0,40.0,87,0.00,,,0.00,weatherlink.com 1.10,2013-01-23 00:32:00,
2013-01-23 01:47:00,43.9,40.0,29.61,East,86,17.0,25.0,87,0.00,,,0.00,weatherlink.com 1.10,2013-01-23 00:47:00,
2013-01-23 02:02:00,43.7,40.0,29.61,NE,43,7.0,16.0,88,0.00,,,0.00,weatherlink.com 1.10,2013-01-23 01:02:00,
2013-01-23 02:17:00,43.5,41.0,29.62,NE,38,9.0,12.0,89,0.00,,,0.00,weatherlink.com 1.10,2013-01-23 01:17:00,
2013-01-23 02:32:00,43.9,40.0,29.62,NE,37,7.0,11.0,86,0.00,,,0.00,weatherlink.com 1.10,2013-01-23 01:32:00,
2013-01-23 02:47:00,43.6,40.0,29.62,ENE,61,6.0,9.0,86,0.00,,,0.00,weatherlink.com 1.10,2013-01-23 01:47:00,
2013-01-23 03:02:00,44.4,40.0,29.63,ENE,60,6.0,10.0,84,0.00,,,0.00,weatherlink.com 1.10,2013-01-23 02:02:00,
2013-01-23 03:17:00,45.0,40.0,29.62,NE,52,11.0,11.0,82,0.00,,,0.00,weatherlink.com 1.10,2013-01-23 02:17:00,
2013-01-23 03:32:00,45.4,41.0,29.62,East,92,8.0,14.0,83,0.00,,,0.00,weatherlink.com 1.10,2013-01-23 02:32:00,
2013-01-23 03:47:00,46.5,41.0,29.62,ENE,75,8.0,18.0,81,0.00,,,0.00,weatherlink.com 1.10,2013-01-23 02:47:00,
2013-01-23 04:02:00,47.0,40.0,29.63,East,86,12.0,19.0,78,0.00,,,0.00,weatherlink.com 1.10,2013-01-23 03:02:00,
2013-01-23 04:17:00,47.0,37.0,29.63,ESE,105,10.0,24.0,69,0.00,,,0.00,weatherlink.com 1.10,2013-01-23 03:17:00,
2013-01-23 04:32:00,46.5,37.0,29.62,ENE,70,14.0,18.0,69,0.00,,,0.00,weatherlink.com 1.10,2013-01-23 03:32:00,
2013-01-23 04:47:00,46.4,36.0,29.63,ENE,65,13.0,17.0,67,0.00,,,0.00,weatherlink.com 1.10,2013-01-23 03:47:00,
2013-01-23 05:02:00,45.3,36.0,29.63,East,86,6.0,15.0,70,0.00,,,0.00,weatherlink.com 1.10,2013-01-23 04:02:00,
2013-01-23 05:17:00,45.3,36.0,29.63,ENE,75,9.0,11.0,70,0.00,,,0.00,weatherlink.com 1.10,2013-01-23 04:17:00,
2013-01-23 05:32:00,44.9,36.0,29.63,ENE,58,6.0,11.0,71,0.00,,,0.00,weatherlink.com 1.10,2013-01-23 04:32:00,
2013-01-23 05:47:00,43.7,36.0,29.62,NE,38,6.0,7.0,74,0.00,,,0.00,weatherlink.com 1.10,2013-01-23 04:47:00,
2013-01-23 06:17:00,42.4,36.0,29.63,ESE,108,2.0,4.0,79,0.00,,,0.00,weatherlink.com 1.10,2013-01-23 05:17:00,
2013-01-23 06:32:00,43.1,36.0,29.64,NE,49,2.0,7.0,76,0.00,,,0.00,weatherlink.com 1.10,2013-01-23 05:32:00,
2013-01-23 06:47:00,42.3,36.0,29.64,NE,34,3.0,5.0,78,0.00,,,0.00,weatherlink.com 1.10,2013-01-23 05:47:00,
2013-01-23 07:02:00,42.4,36.0,29.65,East,91,4.0,5.0,77,0.00,,,0.00,weatherlink.com 1.10,2013-01-23 06:02:00,
2013-01-23 07:17:00,42.0,35.0,29.65,East,93,2.0,2.0,77,0.00,,,0.00,weatherlink.com 1.10,2013-01-23 06:17:00,
2013-01-23 07:32:00,42.7,35.0,29.65,NE,38,5.0,5.0,75,0.00,,,0.00,weatherlink.com 1.10,2013-01-23 06:32:00,
2013-01-23 07:47:00,42.7,35.0,29.66,ENE,57,8.0,10.0,74,0.00,,,0.00,weatherlink.com 1.10,2013-01-23 06:47:00,
2013-01-23 08:02:00,45.2,36.0,29.66,East,99,8.0,18.0,71,0.00,,,0.00,weatherlink.com 1.10,2013-01-23 07:02:00,
2013-01-23 08:17:00,45.5,35.0,29.66,East,91,9.0,16.0,68,0.00,,,0.00,weatherlink.com 1.10,2013-01-23 07:17:00,
2013-01-23 08:33:00,46.0,35.0,29.66,East,95,9.0,14.0,66,0.00,,,0.00,weatherlink.com 1.10,2013-01-23 07:33:00,
2013-01-23 08:48:00,45.4,35.0,29.67,East,83,10.0,12.0,68,0.00,,,0.00,weatherlink.com 1.10,2013-01-23 07:48:00,
2013-01-23 09:03:00,45.6,36.0,29.67,ESE,110,6.0,12.0,68,0.00,,,0.00,weatherlink.com 1.10,2013-01-23 08:03:00,
2013-01-23 09:18:00,45.8,37.0,29.67,ESE,119,6.0,9.0,70,0.00,,,0.00,weatherlink.com 1.10,2013-01-23 08:18:00,
2013-01-23 09:33:00,47.0,36.0,29.67,ENE,71,5.0,11.0,66,0.00,,,0.00,weatherlink.com 1.10,2013-01-23 08:33:00,
2013-01-23 09:48:00,47.9,36.0,29.68,East,85,2.0,7.0,63,0.00,,,0.00,weatherlink.com 1.10,2013-01-23 08:48:00,
2013-01-23 10:03:00,47.0,38.0,29.68,East,91,13.0,18.0,70,0.00,,,0.00,weatherlink.com 1.10,2013-01-23 09:03:00,
2013-01-23 10:18:00,47.4,37.0,29.68,ENE,68,12.0,17.0,67,0.00,,,0.00,weatherlink.com 1.10,2013-01-23 09:18:00,
2013-01-23 10:33:00,49.3,37.0,29.69,ENE,65,12.0,22.0,62,0.00,,,0.00,weatherlink.com 1.10,2013-01-23 09:33:00,
2013-01-23 10:48:00,49.0,37.0,29.70,ESE,109,20.0,28.0,64,0.00,,,0.00,weatherlink.com 1.10,2013-01-23 09:48:00,
2013-01-23 11:03:00,47.7,38.0,29.71,ESE,114,16.0,26.0,70,0.00,,,0.00,weatherlink.com 1.10,2013-01-23 10:03:00,
2013-01-23 11:18:00,48.0,38.0,29.71,ESE,109,8.0,16.0,69,0.00,,,0.00,weatherlink.com 1.10,2013-01-23 10:18:00,
2013-01-23 11:33:00,47.8,38.0,29.72,SE,132,12.0,18.0,70,0.00,,,0.00,weatherlink.com 1.10,2013-01-23 10:33:00,
2013-01-23 11:48:00,48.2,38.0,29.72,ENE,67,11.0,17.0,68,0.00,,,0.00,weatherlink.com 1.10,2013-01-23 10:48:00,
2013-01-23 12:03:00,48.2,38.0,29.71,ENE,72,8.0,18.0,69,0.00,,,0.00,weatherlink.com 1.10,2013-01-23 11:03:00,
2013-01-23 12:18:00,48.8,39.0,29.71,ENE,75,11.0,21.0,68,0.00,,,0.00,weatherlink.com 1.10,2013-01-23 11:18:00,
2013-01-23 12:33:00,49.1,39.0,29.71,East,84,6.0,17.0,68,0.00,,,0.00,weatherlink.com 1.10,2013-01-23 11:33:00,
2013-01-23 12:48:00,49.2,39.0,29.71,ESE,117,12.0,23.0,67,0.00,,,0.00,weatherlink.com 1.10,2013-01-23 11:48:00,
2013-01-23 13:03:00,49.4,38.0,29.71,East,79,12.0,27.0,66,0.00,,,0.00,weatherlink.com 1.10,2013-01-23 12:03:00,
2013-01-23 13:18:00,49.2,39.0,29.71,ESE,106,10.0,22.0,69,0.00,,,0.00,weatherlink.com 1.10,2013-01-23 12:18:00,
2013-01-23 13:33:00,49.2,39.0,29.72,ESE,115,14.0,18.0,68,0.00,,,0.00,weatherlink.com 1.10,2013-01-23 12:33:00,
2013-01-23 13:48:00,49.5,39.0,29.71,ESE,117,17.0,17.0,67,0.00,,,0.00,weatherlink.com 1.10,2013-01-23 12:48:00,
2013-01-23 14:03:00,49.2,38.0,29.71,ESE,112,15.0,20.0,65,0.00,,,0.00,weatherlink.com 1.10,2013-01-23 13:03:00,
2013-01-23 14:18:00,49.1,38.0,29.71,ESE,119,11.0,21.0,66,0.00,,,0.00,weatherlink.com 1.10,2013-01-23 13:18:00,
2013-01-23 14:33:00,49.3,39.0,29.72,ESE,117,26.0,26.0,67,0.00,,,0.00,weatherlink.com 1.10,2013-01-23 13:33:00,
2013-01-23 14:48:00,49.3,39.0,29.72,ENE,70,9.0,17.0,68,0.00,,,0.00,weatherlink.com 1.10,2013-01-23 13:48:00,
2013-01-23 15:03:00,49.1,39.0,29.73,ESE,114,18.0,20.0,68,0.00,,,0.00,weatherlink.com 1.10,2013-01-23 14:03:00,
2013-01-23 15:18:00,49.6,39.0,29.73,ESE,113,12.0,21.0,66,0.00,,,0.00,weatherlink.com 1.10,2013-01-23 14:18:00,
2013-01-23 15:33:00,50.2,37.0,29.74,ESE,104,12.0,24.0,61,0.00,,,0.00,weatherlink.com 1.10,2013-01-23 14:33:00,
2013-01-23 15:48:00,50.0,38.0,29.75,ENE,72,5.0,15.0,63,0.00,,,0.00,weatherlink.com 1.10,2013-01-23 14:48:00,
2013-01-23 16:03:00,50.0,38.0,29.76,ESE,113,20.0,25.0,63,0.00,,,0.00,weatherlink.com 1.10,2013-01-23 15:03:00,
2013-01-23 16:18:00,49.3,38.0,29.76,East,89,8.0,16.0,65,0.00,,,0.00,weatherlink.com 1.10,2013-01-23 15:18:00,
2013-01-23 16:33:00,49.7,37.0,29.75,ENE,77,11.0,17.0,62,0.00,,,0.00,weatherlink.com 1.10,2013-01-23 15:33:00,
2013-01-23 16:48:00,49.8,37.0,29.76,East,92,12.0,18.0,62,0.00,,,0.00,weatherlink.com 1.10,2013-01-23 15:48:00,
2013-01-23 17:03:00,49.6,38.0,29.76,East,81,17.0,17.0,64,0.00,,,0.00,weatherlink.com 1.10,2013-01-23 16:03:00,
2013-01-23 17:18:00,49.8,38.0,29.77,ENE,69,14.0,18.0,63,0.00,,,0.00,weatherlink.com 1.10,2013-01-23 16:18:00,
2013-01-23 17:33:00,49.9,38.0,29.77,ESE,107,6.0,12.0,63,0.00,,,0.00,weatherlink.com 1.10,2013-01-23 16:33:00,
2013-01-23 17:48:00,50.1,37.0,29.77,ENE,62,7.0,13.0,62,0.00,,,0.00,weatherlink.com 1.10,2013-01-23 16:48:00,
2013-01-23 18:03:00,50.1,37.0,29.77,East,84,10.0,14.0,62,0.00,,,0.00,weatherlink.com 1.10,2013-01-23 17:03:00,
2013-01-23 18:18:00,49.9,38.0,29.78,ESE,109,17.0,18.0,63,0.00,,,0.00,weatherlink.com 1.10,2013-01-23 17:18:00,
2013-01-23 18:33:00,49.5,37.0,29.79,East,88,4.0,14.0,63,0.00,,,0.00,weatherlink.com 1.10,2013-01-23 17:33:00,
2013-01-23 18:48:00,49.3,37.0,29.79,East,100,6.0,14.0,63,0.00,,,0.00,weatherlink.com 1.10,2013-01-23 17:48:00,
2013-01-23 19:04:00,49.0,37.0,29.80,ESE,102,5.0,12.0,64,0.00,,,0.00,weatherlink.com 1.10,2013-01-23 18:04:00,
2013-01-23 19:19:00,48.8,37.0,29.80,ESE,120,8.0,12.0,65,0.00,,,0.00,weatherlink.com 1.10,2013-01-23 18:19:00,
2013-01-23 19:49:00,49.3,38.0,29.80,ESE,111,13.0,22.0,65,0.00,,,0.00,weatherlink.com 1.10,2013-01-23 18:49:00,
2013-01-23 20:04:00,48.6,38.0,29.81,ENE,67,3.0,12.0,68,0.00,,,0.00,weatherlink.com 1.10,2013-01-23 19:04:00,
2013-01-23 20:19:00,48.1,38.0,29.81,ESE,120,6.0,12.0,69,0.00,,,0.00,weatherlink.com 1.10,2013-01-23 19:19:00,
2013-01-23 20:34:00,48.0,39.0,29.81,ESE,115,13.0,16.0,72,0.00,,,0.00,weatherlink.com 1.10,2013-01-23 19:34:00,
2013-01-23 20:49:00,47.5,40.0,29.82,ESE,118,11.0,14.0,74,0.00,,,0.00,weatherlink.com 1.10,2013-01-23 19:49:00,
2013-01-23 21:04:00,47.3,40.0,29.82,ESE,110,10.0,15.0,77,0.00,,,0.00,weatherlink.com 1.10,2013-01-23 20:04:00,
2013-01-23 21:19:00,46.4,41.0,29.82,East,96,4.0,11.0,80,0.00,,,0.00,weatherlink.com 1.10,2013-01-23 20:19:00,
2013-01-23 21:34:00,45.7,40.0,29.82,East,101,6.0,10.0,81,0.00,,,0.00,weatherlink.com 1.10,2013-01-23 20:34:00,
2013-01-23 21:49:00,47.1,39.0,29.82,East,99,7.0,7.0,74,0.00,,,0.00,weatherlink.com 1.10,2013-01-23 20:49:00,
2013-01-23 22:04:00,46.8,39.0,29.81,East,89,10.0,15.0,74,0.00,,,0.00,weatherlink.com 1.10,2013-01-23 21:04:00,
2013-01-23 22:19:00,47.7,39.0,29.81,ESE,111,8.0,10.0,71,0.00,,,0.00,weatherlink.com 1.10,2013-01-23 21:19:00,
2013-01-23 22:34:00,48.4,38.0,29.81,ESE,108,9.0,15.0,68,0.00,,,0.00,weatherlink.com 1.10,2013-01-23 21:34:00,
2013-01-23 22:49:00,48.3,38.0,29.81,East,94,7.0,10.0,68,0.00,,,0.00,weatherlink.com 1.10,2013-01-23 21:49:00,
2013-01-23 23:04:00,48.3,38.0,29.81,SE,125,9.0,16.0,68,0.00,,,0.00,weatherlink.com 1.10,2013-01-23 22:04:00,
2013-01-23 23:19:00,49.5,37.0,29.82,ESE,110,14.0,25.0,63,0.00,,,0.00,weatherlink.com 1.10,2013-01-23 22:19:00,
2013-01-23 23:34:00,48.5,37.0,29.82,ESE,117,12.0,13.0,65,0.00,,,0.00,weatherlink.com 1.10,2013-01-23 22:34:00,
2013-01-23 23:49:00,48.3,37.0,29.82,ESE,113,9.0,12.0,65,0.00,,,0.00,weatherlink.com 1.10,2013-01-23 22:49:00,